Terminal Aerodrome Forecast
Issued by NWS

Home | Current Version | Previous Version | Text Only | Print | Product List | Glossary On
Versions: 1 2 3 4 5 6 7 8 9 10 11 12 13 14 15 16 17 18 19 20 21
961
FTUS44 KLZK 270810 AAA
TAFHRO
TAF AMD
KHRO 270810Z 2708/2806 16010G20KT P6SM -RA VCTS BKN050CB OVC100
      TEMPO 2708/2709 5SM -TSRA BR BKN025CB OVC040
     FM270900 18008G18KT P6SM -RA VCTS SCT015CB OVC050
     FM271300 19008G15KT P6SM VCSH SCT015 OVC050
     FM271800 27010KT P6SM BKN025 BKN080=

USA.gov is the U.S. government's official web portal to all federal, state and local government web resources and services.